Terminal Aerodrome Forecast
Issued by NWS Bismarck, ND

Home | Current Version | Previous Version | Graphics & Text | Print | Product List | Glossary On
Versions: 1 2 3 4 5 6 7 8 9 10 11 12 13 14 15 16 17 18 19 20 21 22 23 24 25 26 27
000
FTUS43 KBIS 260500
TAFISN
TAF
KISN 260540Z 2606/2706 32006KT P6SM OVC015
      TEMPO 2609/2612 SCT015 BKN035
     FM261200 34008KT P6SM SCT020 BKN035
     FM261400 33006KT P6SM SCT015 BKN150=

USA.gov is the U.S. government's official web portal to all federal, state and local government web resources and services.